sensor_id;sensor_type;location;lat;lon;timestamp;P1;durP1;ratioP1;P2;durP2;ratioP2
21505;SDS011;10914;48.886;9.394;2022-10-23T00:01:21;51.38;;;48.25;;
21505;SDS011;10914;48.886;9.394;2022-10-23T00:03:50;52.58;;;49.70;;
21505;SDS011;10914;48.886;9.394;2022-10-23T00:06:16;59.33;;;56.28;;
21505;SDS011;10914;48.886;9.394;2022-10-23T00:08:41;67.18;;;63.40;;
21505;SDS011;10914;48.886;9.394;2022-10-23T00:11:08;66.55;;;63.03;;
21505;SDS011;10914;48.886;9.394;2022-10-23T00:13:33;68.22;;;64.10;;
21505;SDS011;10914;48.886;9.394;2022-10-23T00:15:58;69.90;;;65.97;;
21505;SDS011;10914;48.886;9.394;2022-10-23T00:18:23;62.40;;;59.20;;
21505;SDS011;10914;48.886;9.394;2022-10-23T00:20:49;56.10;;;53.00;;
21505;SDS011;10914;48.886;9.394;2022-10-23T00:23:15;58.17;;;54.55;;
21505;SDS011;10914;48.886;9.394;2022-10-23T00:25:40;60.90;;;57.28;;
21505;SDS011;10914;48.886;9.394;2022-10-23T00:28:06;69.28;;;65.60;;
21505;SDS011;10914;48.886;9.394;2022-10-23T00:30:31;54.70;;;51.78;;
21505;SDS011;10914;48.886;9.394;2022-10-23T00:32:56;51.97;;;49.05;;
21505;SDS011;10914;48.886;9.394;2022-10-23T00:35:21;56.33;;;53.17;;
21505;SDS011;10914;48.886;9.394;2022-10-23T00:37:47;48.40;;;45.50;;
21505;SDS011;10914;48.886;9.394;2022-10-23T00:40:12;46.63;;;43.95;;
21505;SDS011;10914;48.886;9.394;2022-10-23T00:42:37;43.53;;;41.03;;
21505;SDS011;10914;48.886;9.394;2022-10-23T00:47:33;42.97;;;40.58;;
21505;SDS011;10914;48.886;9.394;2022-10-23T00:49:59;37.92;;;35.45;;
21505;SDS011;10914;48.886;9.394;2022-10-23T00:52:25;36.72;;;34.58;;
21505;SDS011;10914;48.886;9.394;2022-10-23T00:54:51;33.20;;;31.27;;
21505;SDS011;10914;48.886;9.394;2022-10-23T00:57:16;31.83;;;29.90;;
21505;SDS011;10914;48.886;9.394;2022-10-23T00:59:41;33.10;;;30.92;;
21505;SDS011;10914;48.886;9.394;2022-10-23T01:02:07;31.55;;;29.63;;
21505;SDS011;10914;48.886;9.394;2022-10-23T01:04:32;31.85;;;29.90;;
21505;SDS011;10914;48.886;9.394;2022-10-23T01:07:01;33.70;;;31.27;;
21505;SDS011;10914;48.886;9.394;2022-10-23T01:09:30;35.17;;;32.80;;
21505;SDS011;10914;48.886;9.394;2022-10-23T01:14:59;32.30;;;30.20;;
21505;SDS011;10914;48.886;9.394;2022-10-23T01:17:37;31.45;;;29.58;;
21505;SDS011;10914;48.886;9.394;2022-10-23T01:27:49;34.45;;;32.42;;
21505;SDS011;10914;48.886;9.394;2022-10-23T01:30:16;32.85;;;30.95;;
21505;SDS011;10914;48.886;9.394;2022-10-23T01:32:48;31.83;;;29.92;;
21505;SDS011;10914;48.886;9.394;2022-10-23T01:35:18;34.63;;;32.45;;
21505;SDS011;10914;48.886;9.394;2022-10-23T01:37:45;34.28;;;32.28;;
21505;SDS011;10914;48.886;9.394;2022-10-23T01:40:27;33.00;;;31.10;;
21505;SDS011;10914;48.886;9.394;2022-10-23T01:42:55;33.00;;;31.00;;
21505;SDS011;10914;48.886;9.394;2022-10-23T01:45:32;33.90;;;31.67;;
21505;SDS011;10914;48.886;9.394;2022-10-23T01:48:00;33.65;;;31.50;;
21505;SDS011;10914;48.886;9.394;2022-10-23T01:50:25;34.40;;;32.38;;
21505;SDS011;10914;48.886;9.394;2022-10-23T01:52:52;33.47;;;31.27;;
21505;SDS011;10914;48.886;9.394;2022-10-23T01:55:18;34.25;;;32.25;;
21505;SDS011;10914;48.886;9.394;2022-10-23T01:57:44;34.78;;;32.67;;
21505;SDS011;10914;48.886;9.394;2022-10-23T02:00:11;36.63;;;34.28;;
21505;SDS011;10914;48.886;9.394;2022-10-23T02:02:37;38.17;;;35.72;;
21505;SDS011;10914;48.886;9.394;2022-10-23T02:07:31;37.00;;;34.25;;
21505;SDS011;10914;48.886;9.394;2022-10-23T02:09:57;38.42;;;35.65;;
21505;SDS011;10914;48.886;9.394;2022-10-23T02:12:31;37.60;;;35.28;;
21505;SDS011;10914;48.886;9.394;2022-10-23T02:15:18;34.28;;;32.22;;
21505;SDS011;10914;48.886;9.394;2022-10-23T02:20:21;38.53;;;36.42;;
21505;SDS011;10914;48.886;9.394;2022-10-23T02:22:51;40.65;;;38.15;;
21505;SDS011;10914;48.886;9.394;2022-10-23T02:25:19;40.63;;;38.30;;
21505;SDS011;10914;48.886;9.394;2022-10-23T02:27:46;44.00;;;41.00;;
21505;SDS011;10914;48.886;9.394;2022-10-23T02:30:13;38.47;;;36.22;;
21505;SDS011;10914;48.886;9.394;2022-10-23T02:32:41;36.92;;;34.47;;
21505;SDS011;10914;48.886;9.394;2022-10-23T02:35:07;38.20;;;35.78;;
21505;SDS011;10914;48.886;9.394;2022-10-23T02:37:32;37.38;;;35.28;;
21505;SDS011;10914;48.886;9.394;2022-10-23T02:39:58;38.17;;;35.97;;
21505;SDS011;10914;48.886;9.394;2022-10-23T02:42:45;37.67;;;35.58;;
21505;SDS011;10914;48.886;9.394;2022-10-23T02:45:21;38.55;;;36.40;;
21505;SDS011;10914;48.886;9.394;2022-10-23T02:47:57;38.97;;;36.28;;
21505;SDS011;10914;48.886;9.394;2022-10-23T02:53:17;39.20;;;37.03;;
21505;SDS011;10914;48.886;9.394;2022-10-23T03:01:04;34.95;;;32.60;;
21505;SDS011;10914;48.886;9.394;2022-10-23T03:03:35;36.97;;;34.95;;
21505;SDS011;10914;48.886;9.394;2022-10-23T03:06:02;36.58;;;34.50;;
21505;SDS011;10914;48.886;9.394;2022-10-23T03:08:27;35.83;;;33.58;;
21505;SDS011;10914;48.886;9.394;2022-10-23T03:10:52;37.25;;;35.28;;
21505;SDS011;10914;48.886;9.394;2022-10-23T03:13:17;36.00;;;33.92;;
21505;SDS011;10914;48.886;9.394;2022-10-23T03:15:43;35.58;;;33.58;;
21505;SDS011;10914;48.886;9.394;2022-10-23T03:18:08;32.63;;;30.85;;
21505;SDS011;10914;48.886;9.394;2022-10-23T03:20:33;33.92;;;32.00;;
21505;SDS011;10914;48.886;9.394;2022-10-23T03:22:59;34.67;;;32.65;;
21505;SDS011;10914;48.886;9.394;2022-10-23T03:25:24;34.85;;;32.75;;
21505;SDS011;10914;48.886;9.394;2022-10-23T03:27:49;31.65;;;29.85;;
21505;SDS011;10914;48.886;9.394;2022-10-23T03:30:14;35.65;;;33.55;;
21505;SDS011;10914;48.886;9.394;2022-10-23T03:32:40;36.80;;;34.63;;
21505;SDS011;10914;48.886;9.394;2022-10-23T03:35:05;38.20;;;36.03;;
21505;SDS011;10914;48.886;9.394;2022-10-23T03:37:30;37.80;;;35.70;;
21505;SDS011;10914;48.886;9.394;2022-10-23T03:39:55;35.60;;;33.60;;
21505;SDS011;10914;48.886;9.394;2022-10-23T03:42:21;39.15;;;36.83;;
21505;SDS011;10914;48.886;9.394;2022-10-23T03:44:46;35.13;;;33.23;;
21505;SDS011;10914;48.886;9.394;2022-10-23T03:47:11;33.70;;;31.90;;
21505;SDS011;10914;48.886;9.394;2022-10-23T03:49:37;35.03;;;33.08;;
21505;SDS011;10914;48.886;9.394;2022-10-23T03:52:02;36.13;;;34.15;;
21505;SDS011;10914;48.886;9.394;2022-10-23T03:54:28;35.90;;;33.83;;
21505;SDS011;10914;48.886;9.394;2022-10-23T03:56:54;39.60;;;37.35;;
21505;SDS011;10914;48.886;9.394;2022-10-23T03:59:19;37.22;;;35.13;;
21505;SDS011;10914;48.886;9.394;2022-10-23T04:01:44;39.10;;;36.83;;
21505;SDS011;10914;48.886;9.394;2022-10-23T04:04:10;39.00;;;36.60;;
21505;SDS011;10914;48.886;9.394;2022-10-23T04:06:36;42.55;;;39.83;;
21505;SDS011;10914;48.886;9.394;2022-10-23T04:09:01;46.40;;;43.85;;
21505;SDS011;10914;48.886;9.394;2022-10-23T04:11:26;45.85;;;43.38;;
21505;SDS011;10914;48.886;9.394;2022-10-23T04:13:52;41.10;;;38.70;;
21505;SDS011;10914;48.886;9.394;2022-10-23T04:16:17;42.47;;;40.00;;
21505;SDS011;10914;48.886;9.394;2022-10-23T04:18:42;41.38;;;38.90;;
21505;SDS011;10914;48.886;9.394;2022-10-23T04:21:08;48.42;;;45.58;;
21505;SDS011;10914;48.886;9.394;2022-10-23T04:23:33;51.75;;;48.67;;
21505;SDS011;10914;48.886;9.394;2022-10-23T04:25:58;45.75;;;43.25;;
21505;SDS011;10914;48.886;9.394;2022-10-23T04:28:24;45.28;;;42.50;;
21505;SDS011;10914;48.886;9.394;2022-10-23T04:30:49;47.40;;;44.80;;
21505;SDS011;10914;48.886;9.394;2022-10-23T04:33:15;49.00;;;46.25;;
21505;SDS011;10914;48.886;9.394;2022-10-23T04:35:40;50.22;;;47.53;;
21505;SDS011;10914;48.886;9.394;2022-10-23T04:38:05;50.25;;;47.50;;
21505;SDS011;10914;48.886;9.394;2022-10-23T04:40:30;48.67;;;46.05;;
21505;SDS011;10914;48.886;9.394;2022-10-23T04:42:56;51.17;;;48.50;;
21505;SDS011;10914;48.886;9.394;2022-10-23T04:45:21;59.90;;;56.28;;
21505;SDS011;10914;48.886;9.394;2022-10-23T04:47:46;52.60;;;49.67;;
21505;SDS011;10914;48.886;9.394;2022-10-23T04:50:11;50.57;;;47.87;;
21505;SDS011;10914;48.886;9.394;2022-10-23T04:52:37;52.95;;;50.05;;
21505;SDS011;10914;48.886;9.394;2022-10-23T04:55:02;58.10;;;55.00;;
21505;SDS011;10914;48.886;9.394;2022-10-23T04:57:27;48.30;;;45.40;;
21505;SDS011;10914;48.886;9.394;2022-10-23T04:59:53;51.63;;;48.85;;
21505;SDS011;10914;48.886;9.394;2022-10-23T05:02:18;48.42;;;45.80;;
21505;SDS011;10914;48.886;9.394;2022-10-23T05:04:43;48.38;;;45.65;;
21505;SDS011;10914;48.886;9.394;2022-10-23T05:07:08;49.40;;;46.58;;
21505;SDS011;10914;48.886;9.394;2022-10-23T05:09:33;47.50;;;44.60;;
21505;SDS011;10914;48.886;9.394;2022-10-23T05:12:00;46.88;;;44.15;;
21505;SDS011;10914;48.886;9.394;2022-10-23T05:14:25;50.33;;;47.28;;
21505;SDS011;10914;48.886;9.394;2022-10-23T05:16:54;51.92;;;48.78;;
21505;SDS011;10914;48.886;9.394;2022-10-23T05:19:22;47.38;;;44.78;;
21505;SDS011;10914;48.886;9.394;2022-10-23T05:21:50;51.13;;;48.20;;
21505;SDS011;10914;48.886;9.394;2022-10-23T05:24:19;49.05;;;46.05;;
21505;SDS011;10914;48.886;9.394;2022-10-23T05:26:45;48.55;;;45.83;;
21505;SDS011;10914;48.886;9.394;2022-10-23T05:29:10;46.95;;;44.30;;
21505;SDS011;10914;48.886;9.394;2022-10-23T05:31:35;48.15;;;45.40;;
21505;SDS011;10914;48.886;9.394;2022-10-23T05:34:00;45.63;;;43.22;;
21505;SDS011;10914;48.886;9.394;2022-10-23T05:36:26;43.03;;;40.63;;
21505;SDS011;10914;48.886;9.394;2022-10-23T05:38:51;44.20;;;41.50;;
21505;SDS011;10914;48.886;9.394;2022-10-23T05:41:17;44.50;;;42.13;;
21505;SDS011;10914;48.886;9.394;2022-10-23T05:43:42;47.47;;;44.65;;
21505;SDS011;10914;48.886;9.394;2022-10-23T05:46:07;48.78;;;46.17;;
21505;SDS011;10914;48.886;9.394;2022-10-23T05:48:33;45.45;;;42.72;;
21505;SDS011;10914;48.886;9.394;2022-10-23T05:51:02;47.00;;;44.50;;
21505;SDS011;10914;48.886;9.394;2022-10-23T05:53:28;46.47;;;43.97;;
21505;SDS011;10914;48.886;9.394;2022-10-23T05:55:53;47.65;;;45.00;;
21505;SDS011;10914;48.886;9.394;2022-10-23T05:58:18;46.97;;;44.40;;
21505;SDS011;10914;48.886;9.394;2022-10-23T06:00:43;43.33;;;40.95;;
21505;SDS011;10914;48.886;9.394;2022-10-23T06:03:08;51.97;;;48.83;;
21505;SDS011;10914;48.886;9.394;2022-10-23T06:05:34;50.92;;;48.03;;
21505;SDS011;10914;48.886;9.394;2022-10-23T06:07:59;46.40;;;43.40;;
21505;SDS011;10914;48.886;9.394;2022-10-23T06:10:25;52.90;;;49.95;;
21505;SDS011;10914;48.886;9.394;2022-10-23T06:12:50;48.47;;;46.05;;
21505;SDS011;10914;48.886;9.394;2022-10-23T06:15:15;47.25;;;44.78;;
21505;SDS011;10914;48.886;9.394;2022-10-23T06:17:40;47.22;;;44.63;;
21505;SDS011;10914;48.886;9.394;2022-10-23T06:20:06;43.95;;;41.65;;
21505;SDS011;10914;48.886;9.394;2022-10-23T06:22:31;46.60;;;44.05;;
21505;SDS011;10914;48.886;9.394;2022-10-23T06:24:57;46.67;;;44.10;;
21505;SDS011;10914;48.886;9.394;2022-10-23T06:27:22;47.00;;;44.33;;
21505;SDS011;10914;48.886;9.394;2022-10-23T06:29:48;47.80;;;45.03;;
21505;SDS011;10914;48.886;9.394;2022-10-23T06:32:13;43.22;;;40.88;;
21505;SDS011;10914;48.886;9.394;2022-10-23T06:34:38;43.45;;;40.80;;
21505;SDS011;10914;48.886;9.394;2022-10-23T06:37:04;41.38;;;38.78;;
21505;SDS011;10914;48.886;9.394;2022-10-23T06:39:29;41.25;;;38.55;;
21505;SDS011;10914;48.886;9.394;2022-10-23T06:41:54;42.50;;;39.85;;
21505;SDS011;10914;48.886;9.394;2022-10-23T06:44:20;40.47;;;38.03;;
21505;SDS011;10914;48.886;9.394;2022-10-23T06:46:45;49.05;;;46.10;;
21505;SDS011;10914;48.886;9.394;2022-10-23T06:49:14;60.28;;;56.65;;
21505;SDS011;10914;48.886;9.394;2022-10-23T06:51:39;74.15;;;69.85;;
21505;SDS011;10914;48.886;9.394;2022-10-23T06:54:04;78.97;;;74.43;;
21505;SDS011;10914;48.886;9.394;2022-10-23T06:56:30;130.10;;;122.18;;
21505;SDS011;10914;48.886;9.394;2022-10-23T06:58:55;113.22;;;106.78;;
21505;SDS011;10914;48.886;9.394;2022-10-23T07:01:20;73.10;;;69.15;;
21505;SDS011;10914;48.886;9.394;2022-10-23T07:03:46;71.57;;;67.63;;
21505;SDS011;10914;48.886;9.394;2022-10-23T07:06:11;70.30;;;66.53;;
21505;SDS011;10914;48.886;9.394;2022-10-23T07:08:37;68.00;;;64.22;;
21505;SDS011;10914;48.886;9.394;2022-10-23T07:11:03;63.05;;;59.72;;
21505;SDS011;10914;48.886;9.394;2022-10-23T07:13:29;52.83;;;49.92;;
21505;SDS011;10914;48.886;9.394;2022-10-23T07:15:54;49.65;;;46.97;;
21505;SDS011;10914;48.886;9.394;2022-10-23T07:18:19;45.22;;;42.63;;
21505;SDS011;10914;48.886;9.394;2022-10-23T07:20:45;43.75;;;41.22;;
21505;SDS011;10914;48.886;9.394;2022-10-23T07:23:13;39.00;;;36.80;;
21505;SDS011;10914;48.886;9.394;2022-10-23T07:25:40;42.97;;;40.42;;
21505;SDS011;10914;48.886;9.394;2022-10-23T07:28:05;46.60;;;44.05;;
21505;SDS011;10914;48.886;9.394;2022-10-23T07:30:31;37.42;;;35.33;;
21505;SDS011;10914;48.886;9.394;2022-10-23T07:32:56;35.92;;;33.65;;
21505;SDS011;10914;48.886;9.394;2022-10-23T07:35:21;37.38;;;35.30;;
21505;SDS011;10914;48.886;9.394;2022-10-23T07:37:46;34.60;;;32.70;;
21505;SDS011;10914;48.886;9.394;2022-10-23T07:40:12;40.55;;;38.35;;
21505;SDS011;10914;48.886;9.394;2022-10-23T07:42:37;32.72;;;30.60;;
21505;SDS011;10914;48.886;9.394;2022-10-23T07:45:03;31.70;;;29.83;;
21505;SDS011;10914;48.886;9.394;2022-10-23T07:47:30;34.22;;;32.35;;
21505;SDS011;10914;48.886;9.394;2022-10-23T07:49:56;36.15;;;33.97;;
21505;SDS011;10914;48.886;9.394;2022-10-23T07:52:21;37.10;;;35.05;;
21505;SDS011;10914;48.886;9.394;2022-10-23T07:54:49;32.72;;;30.95;;
21505;SDS011;10914;48.886;9.394;2022-10-23T07:57:14;29.75;;;28.17;;
21505;SDS011;10914;48.886;9.394;2022-10-23T07:59:40;25.92;;;24.45;;
21505;SDS011;10914;48.886;9.394;2022-10-23T08:02:08;27.42;;;25.67;;
21505;SDS011;10914;48.886;9.394;2022-10-23T08:04:34;29.42;;;27.67;;
21505;SDS011;10914;48.886;9.394;2022-10-23T08:06:59;28.67;;;26.98;;
21505;SDS011;10914;48.886;9.394;2022-10-23T08:09:25;27.85;;;26.25;;
21505;SDS011;10914;48.886;9.394;2022-10-23T08:11:50;27.13;;;25.38;;
21505;SDS011;10914;48.886;9.394;2022-10-23T08:14:15;27.27;;;25.52;;
21505;SDS011;10914;48.886;9.394;2022-10-23T08:16:41;25.67;;;24.13;;
21505;SDS011;10914;48.886;9.394;2022-10-23T08:19:06;25.58;;;24.08;;
21505;SDS011;10914;48.886;9.394;2022-10-23T08:21:31;25.10;;;23.80;;
21505;SDS011;10914;48.886;9.394;2022-10-23T08:23:58;25.60;;;24.13;;
21505;SDS011;10914;48.886;9.394;2022-10-23T08:26:23;25.73;;;24.23;;
21505;SDS011;10914;48.886;9.394;2022-10-23T08:28:49;28.52;;;26.98;;
21505;SDS011;10914;48.886;9.394;2022-10-23T08:31:15;31.05;;;29.45;;
21505;SDS011;10914;48.886;9.394;2022-10-23T08:33:41;32.15;;;30.35;;
21505;SDS011;10914;48.886;9.394;2022-10-23T08:36:20;32.58;;;30.88;;
21505;SDS011;10914;48.886;9.394;2022-10-23T08:38:46;31.63;;;29.95;;
21505;SDS011;10914;48.886;9.394;2022-10-23T08:41:22;27.08;;;25.73;;
21505;SDS011;10914;48.886;9.394;2022-10-23T08:43:50;25.52;;;24.15;;
21505;SDS011;10914;48.886;9.394;2022-10-23T08:46:18;24.70;;;23.42;;
21505;SDS011;10914;48.886;9.394;2022-10-23T08:48:52;24.25;;;23.05;;
21505;SDS011;10914;48.886;9.394;2022-10-23T08:51:30;23.95;;;22.80;;
21505;SDS011;10914;48.886;9.394;2022-10-23T08:53:59;25.95;;;24.65;;
21505;SDS011;10914;48.886;9.394;2022-10-23T08:56:27;24.48;;;23.27;;
21505;SDS011;10914;48.886;9.394;2022-10-23T09:02:00;23.40;;;22.23;;
21505;SDS011;10914;48.886;9.394;2022-10-23T09:04:26;23.15;;;22.02;;
21505;SDS011;10914;48.886;9.394;2022-10-23T09:14:34;23.52;;;22.23;;
21505;SDS011;10914;48.886;9.394;2022-10-23T09:19:32;22.00;;;20.90;;
21505;SDS011;10914;48.886;9.394;2022-10-23T09:21:57;21.08;;;20.08;;
21505;SDS011;10914;48.886;9.394;2022-10-23T09:24:24;20.67;;;19.67;;
21505;SDS011;10914;48.886;9.394;2022-10-23T09:26:50;21.17;;;19.98;;
21505;SDS011;10914;48.886;9.394;2022-10-23T09:29:23;20.15;;;19.20;;
21505;SDS011;10914;48.886;9.394;2022-10-23T09:31:50;20.88;;;19.77;;
21505;SDS011;10914;48.886;9.394;2022-10-23T09:34:17;20.75;;;19.65;;
21505;SDS011;10914;48.886;9.394;2022-10-23T09:36:47;20.67;;;19.50;;
21505;SDS011;10914;48.886;9.394;2022-10-23T09:39:19;20.67;;;19.67;;
21505;SDS011;10914;48.886;9.394;2022-10-23T09:41:45;19.73;;;18.75;;
21505;SDS011;10914;48.886;9.394;2022-10-23T09:44:17;20.27;;;19.15;;
21505;SDS011;10914;48.886;9.394;2022-10-23T09:46:48;20.10;;;18.80;;
21505;SDS011;10914;48.886;9.394;2022-10-23T09:49:15;20.05;;;19.05;;
21505;SDS011;10914;48.886;9.394;2022-10-23T09:51:46;19.33;;;18.42;;
21505;SDS011;10914;48.886;9.394;2022-10-23T09:54:13;20.05;;;19.05;;
21505;SDS011;10914;48.886;9.394;2022-10-23T09:56:39;19.83;;;18.80;;
21505;SDS011;10914;48.886;9.394;2022-10-23T10:01:44;20.27;;;19.17;;
21505;SDS011;10914;48.886;9.394;2022-10-23T10:04:10;21.20;;;20.13;;
21505;SDS011;10914;48.886;9.394;2022-10-23T10:06:36;21.80;;;20.70;;
21505;SDS011;10914;48.886;9.394;2022-10-23T10:09:04;20.83;;;19.73;;
21505;SDS011;10914;48.886;9.394;2022-10-23T10:16:37;20.23;;;19.13;;
21505;SDS011;10914;48.886;9.394;2022-10-23T10:19:26;20.85;;;19.85;;
21505;SDS011;10914;48.886;9.394;2022-10-23T10:24:41;18.10;;;17.20;;
21505;SDS011;10914;48.886;9.394;2022-10-23T10:29:49;17.33;;;16.52;;
21505;SDS011;10914;48.886;9.394;2022-10-23T10:34:52;17.08;;;16.27;;
21505;SDS011;10914;48.886;9.394;2022-10-23T10:39:56;18.08;;;17.08;;
21505;SDS011;10914;48.886;9.394;2022-10-23T10:47:42;18.05;;;17.25;;
21505;SDS011;10914;48.886;9.394;2022-10-23T10:50:22;17.38;;;16.48;;
21505;SDS011;10914;48.886;9.394;2022-10-23T10:53:10;17.05;;;16.15;;
21505;SDS011;10914;48.886;9.394;2022-10-23T10:55:38;17.80;;;16.90;;
21505;SDS011;10914;48.886;9.394;2022-10-23T10:58:09;17.25;;;16.45;;
21505;SDS011;10914;48.886;9.394;2022-10-23T11:00:38;16.17;;;15.48;;
21505;SDS011;10914;48.886;9.394;2022-10-23T11:03:09;16.10;;;15.30;;
21505;SDS011;10914;48.886;9.394;2022-10-23T11:05:43;16.45;;;15.63;;
21505;SDS011;10914;48.886;9.394;2022-10-23T11:10:40;17.60;;;16.63;;
21505;SDS011;10914;48.886;9.394;2022-10-23T11:13:11;18.40;;;17.50;;
21505;SDS011;10914;48.886;9.394;2022-10-23T11:15:42;19.58;;;18.67;;
21505;SDS011;10914;48.886;9.394;2022-10-23T11:18:15;19.80;;;18.90;;
21505;SDS011;10914;48.886;9.394;2022-10-23T11:20:45;18.23;;;17.33;;
21505;SDS011;10914;48.886;9.394;2022-10-23T11:25:48;18.60;;;17.70;;
21505;SDS011;10914;48.886;9.394;2022-10-23T11:30:53;18.58;;;17.60;;
21505;SDS011;10914;48.886;9.394;2022-10-23T11:38:34;18.58;;;17.60;;
21505;SDS011;10914;48.886;9.394;2022-10-23T11:41:01;18.70;;;17.80;;
21505;SDS011;10914;48.886;9.394;2022-10-23T11:45:52;18.92;;;18.02;;
21505;SDS011;10914;48.886;9.394;2022-10-23T11:48:19;20.08;;;19.08;;
21505;SDS011;10914;48.886;9.394;2022-10-23T11:55:57;21.30;;;19.77;;
21505;SDS011;10914;48.886;9.394;2022-10-23T11:58:27;19.10;;;18.10;;
21505;SDS011;10914;48.886;9.394;2022-10-23T12:01:03;19.35;;;18.35;;
21505;SDS011;10914;48.886;9.394;2022-10-23T12:03:38;20.73;;;19.63;;
21505;SDS011;10914;48.886;9.394;2022-10-23T12:06:04;20.52;;;19.42;;
21505;SDS011;10914;48.886;9.394;2022-10-23T12:08:31;20.63;;;19.38;;
21505;SDS011;10914;48.886;9.394;2022-10-23T12:10:57;20.70;;;19.70;;
21505;SDS011;10914;48.886;9.394;2022-10-23T12:13:42;20.30;;;19.30;;
21505;SDS011;10914;48.886;9.394;2022-10-23T12:16:08;20.55;;;19.65;;
21505;SDS011;10914;48.886;9.394;2022-10-23T12:18:52;20.05;;;19.00;;
21505;SDS011;10914;48.886;9.394;2022-10-23T12:21:21;20.45;;;19.45;;
21505;SDS011;10914;48.886;9.394;2022-10-23T12:28:50;19.53;;;18.53;;
21505;SDS011;10914;48.886;9.394;2022-10-23T12:39:25;19.98;;;18.83;;
21505;SDS011;10914;48.886;9.394;2022-10-23T12:41:51;20.05;;;19.05;;
21505;SDS011;10914;48.886;9.394;2022-10-23T12:44:16;20.25;;;18.95;;
21505;SDS011;10914;48.886;9.394;2022-10-23T12:46:45;20.02;;;18.92;;
21505;SDS011;10914;48.886;9.394;2022-10-23T12:49:15;20.10;;;18.83;;
21505;SDS011;10914;48.886;9.394;2022-10-23T12:51:41;19.88;;;18.98;;
21505;SDS011;10914;48.886;9.394;2022-10-23T12:54:16;19.80;;;18.58;;
21505;SDS011;10914;48.886;9.394;2022-10-23T12:56:42;19.15;;;18.17;;
21505;SDS011;10914;48.886;9.394;2022-10-23T12:59:16;18.98;;;17.83;;
21505;SDS011;10914;48.886;9.394;2022-10-23T13:01:42;18.35;;;17.45;;
21505;SDS011;10914;48.886;9.394;2022-10-23T13:06:45;19.20;;;18.17;;
21505;SDS011;10914;48.886;9.394;2022-10-23T13:09:20;19.90;;;18.80;;
21505;SDS011;10914;48.886;9.394;2022-10-23T13:11:46;20.45;;;19.45;;
21505;SDS011;10914;48.886;9.394;2022-10-23T13:14:12;19.08;;;18.15;;
21505;SDS011;10914;48.886;9.394;2022-10-23T13:16:37;19.80;;;18.70;;
21505;SDS011;10914;48.886;9.394;2022-10-23T13:19:02;18.37;;;17.43;;
21505;SDS011;10914;48.886;9.394;2022-10-23T13:21:28;18.83;;;17.93;;
21505;SDS011;10914;48.886;9.394;2022-10-23T13:23:54;19.70;;;18.63;;
21505;SDS011;10914;48.886;9.394;2022-10-23T13:26:22;19.80;;;18.90;;
21505;SDS011;10914;48.886;9.394;2022-10-23T13:28:48;19.25;;;18.35;;
21505;SDS011;10914;48.886;9.394;2022-10-23T13:36:05;18.73;;;17.75;;
21505;SDS011;10914;48.886;9.394;2022-10-23T13:38:43;18.92;;;17.92;;
21505;SDS011;10914;48.886;9.394;2022-10-23T13:41:16;19.20;;;18.15;;
21505;SDS011;10914;48.886;9.394;2022-10-23T13:43:42;18.38;;;17.35;;
21505;SDS011;10914;48.886;9.394;2022-10-23T13:46:15;19.17;;;18.10;;
21505;SDS011;10914;48.886;9.394;2022-10-23T13:48:40;19.23;;;17.70;;
21505;SDS011;10914;48.886;9.394;2022-10-23T13:51:27;19.80;;;18.60;;
21505;SDS011;10914;48.886;9.394;2022-10-23T13:53:51;19.55;;;18.52;;
21505;SDS011;10914;48.886;9.394;2022-10-23T13:56:18;19.38;;;18.48;;
21505;SDS011;10914;48.886;9.394;2022-10-23T13:58:43;19.73;;;18.83;;
21505;SDS011;10914;48.886;9.394;2022-10-23T14:01:15;20.13;;;19.23;;
21505;SDS011;10914;48.886;9.394;2022-10-23T14:03:42;20.30;;;19.13;;
21505;SDS011;10914;48.886;9.394;2022-10-23T14:06:08;20.90;;;19.70;;
21505;SDS011;10914;48.886;9.394;2022-10-23T14:08:33;20.90;;;19.80;;
21505;SDS011;10914;48.886;9.394;2022-10-23T14:10:58;19.43;;;18.53;;
21505;SDS011;10914;48.886;9.394;2022-10-23T14:13:23;20.27;;;19.27;;
21505;SDS011;10914;48.886;9.394;2022-10-23T14:15:52;20.17;;;19.15;;
21505;SDS011;10914;48.886;9.394;2022-10-23T14:18:17;21.65;;;20.25;;
21505;SDS011;10914;48.886;9.394;2022-10-23T14:20:43;22.20;;;20.95;;
21505;SDS011;10914;48.886;9.394;2022-10-23T14:23:09;28.60;;;26.80;;
21505;SDS011;10914;48.886;9.394;2022-10-23T14:25:34;30.07;;;28.37;;
21505;SDS011;10914;48.886;9.394;2022-10-23T14:27:59;27.67;;;26.27;;
21505;SDS011;10914;48.886;9.394;2022-10-23T14:30:24;30.00;;;28.52;;
21505;SDS011;10914;48.886;9.394;2022-10-23T14:32:50;26.20;;;24.80;;
21505;SDS011;10914;48.886;9.394;2022-10-23T14:35:16;24.33;;;23.13;;
21505;SDS011;10914;48.886;9.394;2022-10-23T14:37:41;23.75;;;22.55;;
21505;SDS011;10914;48.886;9.394;2022-10-23T14:40:06;24.10;;;22.90;;
21505;SDS011;10914;48.886;9.394;2022-10-23T14:42:32;22.70;;;21.48;;
21505;SDS011;10914;48.886;9.394;2022-10-23T14:44:58;21.15;;;20.05;;
21505;SDS011;10914;48.886;9.394;2022-10-23T14:47:23;24.02;;;22.63;;
21505;SDS011;10914;48.886;9.394;2022-10-23T14:49:50;23.50;;;22.10;;
21505;SDS011;10914;48.886;9.394;2022-10-23T14:52:16;24.02;;;22.73;;
21505;SDS011;10914;48.886;9.394;2022-10-23T14:54:41;22.95;;;21.65;;
21505;SDS011;10914;48.886;9.394;2022-10-23T14:57:06;23.37;;;22.07;;
21505;SDS011;10914;48.886;9.394;2022-10-23T14:59:31;22.38;;;21.17;;
21505;SDS011;10914;48.886;9.394;2022-10-23T15:01:57;22.67;;;21.30;;
21505;SDS011;10914;48.886;9.394;2022-10-23T15:04:22;23.95;;;22.48;;
21505;SDS011;10914;48.886;9.394;2022-10-23T15:06:47;22.33;;;21.13;;
21505;SDS011;10914;48.886;9.394;2022-10-23T15:09:13;23.87;;;22.53;;
21505;SDS011;10914;48.886;9.394;2022-10-23T15:11:38;22.92;;;21.65;;
21505;SDS011;10914;48.886;9.394;2022-10-23T15:14:03;25.27;;;23.73;;
21505;SDS011;10914;48.886;9.394;2022-10-23T15:16:29;26.13;;;24.60;;
21505;SDS011;10914;48.886;9.394;2022-10-23T15:18:54;24.20;;;22.70;;
21505;SDS011;10914;48.886;9.394;2022-10-23T15:21:19;24.00;;;22.50;;
21505;SDS011;10914;48.886;9.394;2022-10-23T15:23:45;28.02;;;26.23;;
21505;SDS011;10914;48.886;9.394;2022-10-23T15:26:12;27.08;;;25.50;;
21505;SDS011;10914;48.886;9.394;2022-10-23T15:28:38;27.88;;;26.27;;
21505;SDS011;10914;48.886;9.394;2022-10-23T15:31:03;25.50;;;23.92;;
21505;SDS011;10914;48.886;9.394;2022-10-23T15:33:28;24.48;;;22.98;;
21505;SDS011;10914;48.886;9.394;2022-10-23T15:35:54;24.10;;;22.70;;
21505;SDS011;10914;48.886;9.394;2022-10-23T15:38:20;28.80;;;27.20;;
21505;SDS011;10914;48.886;9.394;2022-10-23T15:40:46;25.63;;;24.15;;
21505;SDS011;10914;48.886;9.394;2022-10-23T15:43:12;28.45;;;26.80;;
21505;SDS011;10914;48.886;9.394;2022-10-23T15:45:38;29.40;;;27.60;;
21505;SDS011;10914;48.886;9.394;2022-10-23T15:48:03;36.65;;;34.63;;
21505;SDS011;10914;48.886;9.394;2022-10-23T15:50:29;35.35;;;33.30;;
21505;SDS011;10914;48.886;9.394;2022-10-23T15:52:55;29.58;;;27.92;;
21505;SDS011;10914;48.886;9.394;2022-10-23T15:55:20;25.87;;;24.17;;
21505;SDS011;10914;48.886;9.394;2022-10-23T15:57:45;38.78;;;36.85;;
21505;SDS011;10914;48.886;9.394;2022-10-23T16:00:11;30.07;;;28.47;;
21505;SDS011;10914;48.886;9.394;2022-10-23T16:02:37;23.10;;;21.80;;
21505;SDS011;10914;48.886;9.394;2022-10-23T16:05:02;38.00;;;35.92;;